sensor_id;sensor_type;location;lat;lon;timestamp;temperature;humidity
46816;DHT22;32787;53.316;8.670;2022-08-11T00:00:12;16.70;85.50
46816;DHT22;32787;53.316;8.670;2022-08-11T00:02:45;16.60;85.90
46816;DHT22;32787;53.316;8.670;2022-08-11T00:05:16;16.50;86.10
46816;DHT22;32787;53.316;8.670;2022-08-11T00:07:48;16.50;86.10
46816;DHT22;32787;53.316;8.670;2022-08-11T00:10:20;16.50;86.10
46816;DHT22;32787;53.316;8.670;2022-08-11T00:13:05;16.30;86.20
46816;DHT22;32787;53.316;8.670;2022-08-11T00:15:42;16.20;86.60
46816;DHT22;32787;53.316;8.670;2022-08-11T00:18:11;16.10;86.70
46816;DHT22;32787;53.316;8.670;2022-08-11T00:20:40;16.10;86.70
46816;DHT22;32787;53.316;8.670;2022-08-11T00:23:13;16.00;86.70
46816;DHT22;32787;53.316;8.670;2022-08-11T00:25:41;16.00;86.80
46816;DHT22;32787;53.316;8.670;2022-08-11T00:28:40;16.00;87.00
46816;DHT22;32787;53.316;8.670;2022-08-11T00:31:08;15.80;87.20
46816;DHT22;32787;53.316;8.670;2022-08-11T00:33:42;15.70;87.50
46816;DHT22;32787;53.316;8.670;2022-08-11T00:36:10;15.70;87.30
46816;DHT22;32787;53.316;8.670;2022-08-11T00:38:38;15.70;87.40
46816;DHT22;32787;53.316;8.670;2022-08-11T00:41:19;15.60;87.40
46816;DHT22;32787;53.316;8.670;2022-08-11T01:11:58;16.10;85.90
46816;DHT22;32787;53.316;8.670;2022-08-11T01:20:06;15.60;87.30
46816;DHT22;32787;53.316;8.670;2022-08-11T01:31:49;15.30;87.40
46816;DHT22;32787;53.316;8.670;2022-08-11T01:47:31;15.10;87.30
46816;DHT22;32787;53.316;8.670;2022-08-11T02:07:00;14.80;87.10
46816;DHT22;32787;53.316;8.670;2022-08-11T02:09:52;14.80;87.40
46816;DHT22;32787;53.316;8.670;2022-08-11T02:12:40;14.70;87.60
46816;DHT22;32787;53.316;8.670;2022-08-11T02:15:19;14.70;87.70
46816;DHT22;32787;53.316;8.670;2022-08-11T02:18:04;14.70;87.60
46816;DHT22;32787;53.316;8.670;2022-08-11T02:20:59;14.70;87.50
46816;DHT22;32787;53.316;8.670;2022-08-11T02:23:52;14.70;87.60
46816;DHT22;32787;53.316;8.670;2022-08-11T02:26:25;14.80;87.70
46816;DHT22;32787;53.316;8.670;2022-08-11T02:29:04;15.00;86.90
46816;DHT22;32787;53.316;8.670;2022-08-11T02:34:58;15.00;86.60
46816;DHT22;32787;53.316;8.670;2022-08-11T02:54:26;14.70;87.10
46816;DHT22;32787;53.316;8.670;2022-08-11T02:59:44;14.60;87.10
46816;DHT22;32787;53.316;8.670;2022-08-11T03:08:02;14.40;87.80
46816;DHT22;32787;53.316;8.670;2022-08-11T03:10:46;14.40;87.90
46816;DHT22;32787;53.316;8.670;2022-08-11T03:25:38;14.30;88.10
46816;DHT22;32787;53.316;8.670;2022-08-11T03:30:51;14.30;87.60
46816;DHT22;32787;53.316;8.670;2022-08-11T03:39:06;14.30;87.60
46816;DHT22;32787;53.316;8.670;2022-08-11T03:41:44;14.20;87.90
46816;DHT22;32787;53.316;8.670;2022-08-11T03:53:16;14.10;87.90
46816;DHT22;32787;53.316;8.670;2022-08-11T04:12:25;13.90;87.40
46816;DHT22;32787;53.316;8.670;2022-08-11T04:24:03;13.80;88.10
46816;DHT22;32787;53.316;8.670;2022-08-11T04:34:35;13.70;88.20
46816;DHT22;32787;53.316;8.670;2022-08-11T04:48:42;13.60;88.40
46816;DHT22;32787;53.316;8.670;2022-08-11T04:58:20;13.90;88.20
46816;DHT22;32787;53.316;8.670;2022-08-11T05:13:06;14.70;87.10
46816;DHT22;32787;53.316;8.670;2022-08-11T05:15:54;14.90;86.80
46816;DHT22;32787;53.316;8.670;2022-08-11T05:18:48;15.00;86.50
46816;DHT22;32787;53.316;8.670;2022-08-11T05:21:34;15.10;86.60
46816;DHT22;32787;53.316;8.670;2022-08-11T05:24:35;15.10;86.60
46816;DHT22;32787;53.316;8.670;2022-08-11T05:27:26;15.20;86.60
46816;DHT22;32787;53.316;8.670;2022-08-11T05:30:14;15.30;86.90
46816;DHT22;32787;53.316;8.670;2022-08-11T05:33:05;15.30;86.90
46816;DHT22;32787;53.316;8.670;2022-08-11T05:36:01;15.40;87.20
46816;DHT22;32787;53.316;8.670;2022-08-11T05:38:34;15.80;86.80
46816;DHT22;32787;53.316;8.670;2022-08-11T05:41:24;15.90;86.30
46816;DHT22;32787;53.316;8.670;2022-08-11T05:44:10;16.00;86.20
46816;DHT22;32787;53.316;8.670;2022-08-11T05:47:00;16.10;86.40
46816;DHT22;32787;53.316;8.670;2022-08-11T05:49:49;16.30;85.90
46816;DHT22;32787;53.316;8.670;2022-08-11T05:52:35;16.30;85.80
46816;DHT22;32787;53.316;8.670;2022-08-11T05:55:20;16.40;85.80
46816;DHT22;32787;53.316;8.670;2022-08-11T05:58:06;16.40;85.90
46816;DHT22;32787;53.316;8.670;2022-08-11T06:00:44;16.50;85.90
46816;DHT22;32787;53.316;8.670;2022-08-11T06:03:19;16.60;85.80
46816;DHT22;32787;53.316;8.670;2022-08-11T06:05:47;16.70;85.70
46816;DHT22;32787;53.316;8.670;2022-08-11T06:08:13;16.70;85.70
46816;DHT22;32787;53.316;8.670;2022-08-11T06:10:41;16.80;85.60
46816;DHT22;32787;53.316;8.670;2022-08-11T06:13:08;16.80;85.60
46816;DHT22;32787;53.316;8.670;2022-08-11T06:15:47;16.80;85.60
46816;DHT22;32787;53.316;8.670;2022-08-11T06:18:13;16.90;85.60
46816;DHT22;32787;53.316;8.670;2022-08-11T06:23:16;17.10;85.30
46816;DHT22;32787;53.316;8.670;2022-08-11T06:25:49;17.30;85.30
46816;DHT22;32787;53.316;8.670;2022-08-11T06:28:16;17.30;84.90
46816;DHT22;32787;53.316;8.670;2022-08-11T06:30:47;17.40;84.80
46816;DHT22;32787;53.316;8.670;2022-08-11T06:33:20;17.50;84.60
46816;DHT22;32787;53.316;8.670;2022-08-11T06:36:09;17.70;84.00
46816;DHT22;32787;53.316;8.670;2022-08-11T06:41:39;17.90;83.40
46816;DHT22;32787;53.316;8.670;2022-08-11T06:46:49;18.20;82.90
46816;DHT22;32787;53.316;8.670;2022-08-11T06:49:19;18.30;82.20
46816;DHT22;32787;53.316;8.670;2022-08-11T06:52:14;18.30;81.90
46816;DHT22;32787;53.316;8.670;2022-08-11T06:54:50;18.40;81.60
46816;DHT22;32787;53.316;8.670;2022-08-11T06:57:33;18.60;80.20
46816;DHT22;32787;53.316;8.670;2022-08-11T07:00:18;18.80;79.70
46816;DHT22;32787;53.316;8.670;2022-08-11T07:02:56;19.00;79.50
46816;DHT22;32787;53.316;8.670;2022-08-11T07:11:10;19.20;79.50
46816;DHT22;32787;53.316;8.670;2022-08-11T07:14:02;19.30;78.80
46816;DHT22;32787;53.316;8.670;2022-08-11T07:16:49;19.40;77.30
46816;DHT22;32787;53.316;8.670;2022-08-11T07:19:23;19.50;77.90
46816;DHT22;32787;53.316;8.670;2022-08-11T07:22:09;19.60;77.00
46816;DHT22;32787;53.316;8.670;2022-08-11T07:25:13;19.70;77.40
46816;DHT22;32787;53.316;8.670;2022-08-11T07:28:08;19.80;75.80
46816;DHT22;32787;53.316;8.670;2022-08-11T07:30:57;20.00;74.50
46816;DHT22;32787;53.316;8.670;2022-08-11T07:33:38;20.10;74.20
46816;DHT22;32787;53.316;8.670;2022-08-11T07:36:06;20.20;75.10
46816;DHT22;32787;53.316;8.670;2022-08-11T07:38:50;20.20;75.30
46816;DHT22;32787;53.316;8.670;2022-08-11T07:41:19;20.40;74.30
46816;DHT22;32787;53.316;8.670;2022-08-11T07:43:48;20.40;74.90
46816;DHT22;32787;53.316;8.670;2022-08-11T07:46:16;20.50;74.90
46816;DHT22;32787;53.316;8.670;2022-08-11T07:49:02;20.50;75.00
46816;DHT22;32787;53.316;8.670;2022-08-11T07:51:48;20.60;74.80
46816;DHT22;32787;53.316;8.670;2022-08-11T07:54:34;20.70;74.30
46816;DHT22;32787;53.316;8.670;2022-08-11T07:57:02;20.80;74.30
46816;DHT22;32787;53.316;8.670;2022-08-11T07:59:46;21.00;72.90
46816;DHT22;32787;53.316;8.670;2022-08-11T08:02:32;21.40;70.50
46816;DHT22;32787;53.316;8.670;2022-08-11T08:05:16;21.50;70.40
46816;DHT22;32787;53.316;8.670;2022-08-11T08:08:02;21.50;70.20
46816;DHT22;32787;53.316;8.670;2022-08-11T08:10:47;21.60;70.60
46816;DHT22;32787;53.316;8.670;2022-08-11T08:13:32;21.70;69.30
46816;DHT22;32787;53.316;8.670;2022-08-11T08:16:18;21.80;70.30
46816;DHT22;32787;53.316;8.670;2022-08-11T08:19:04;22.00;69.70
46816;DHT22;32787;53.316;8.670;2022-08-11T08:21:30;22.00;69.60
46816;DHT22;32787;53.316;8.670;2022-08-11T08:23:57;22.00;67.80
46816;DHT22;32787;53.316;8.670;2022-08-11T08:26:23;22.30;66.20
46816;DHT22;32787;53.316;8.670;2022-08-11T08:29:08;22.50;63.40
46816;DHT22;32787;53.316;8.670;2022-08-11T08:31:53;22.50;64.70
46816;DHT22;32787;53.316;8.670;2022-08-11T08:34:22;22.70;64.00
46816;DHT22;32787;53.316;8.670;2022-08-11T08:36:49;22.80;62.80
46816;DHT22;32787;53.316;8.670;2022-08-11T08:39:19;22.90;62.10
46816;DHT22;32787;53.316;8.670;2022-08-11T08:41:49;23.30;60.30
46816;DHT22;32787;53.316;8.670;2022-08-11T08:44:18;23.30;61.00
46816;DHT22;32787;53.316;8.670;2022-08-11T08:46:49;23.40;58.70
46816;DHT22;32787;53.316;8.670;2022-08-11T08:49:20;23.50;57.50
46816;DHT22;32787;53.316;8.670;2022-08-11T08:51:52;23.50;58.00
46816;DHT22;32787;53.316;8.670;2022-08-11T08:54:22;23.60;57.20
46816;DHT22;32787;53.316;8.670;2022-08-11T08:56:51;23.80;56.10
46816;DHT22;32787;53.316;8.670;2022-08-11T08:59:21;23.80;55.10
46816;DHT22;32787;53.316;8.670;2022-08-11T09:01:50;24.10;52.70
46816;DHT22;32787;53.316;8.670;2022-08-11T09:04:17;24.10;53.30
46816;DHT22;32787;53.316;8.670;2022-08-11T09:06:44;24.30;52.30
46816;DHT22;32787;53.316;8.670;2022-08-11T09:09:11;24.30;51.10
46816;DHT22;32787;53.316;8.670;2022-08-11T09:11:40;24.40;48.90
46816;DHT22;32787;53.316;8.670;2022-08-11T09:14:22;24.40;51.30
46816;DHT22;32787;53.316;8.670;2022-08-11T09:16:49;24.70;51.00
46816;DHT22;32787;53.316;8.670;2022-08-11T09:19:18;24.70;50.50
46816;DHT22;32787;53.316;8.670;2022-08-11T09:21:49;24.90;50.50
46816;DHT22;32787;53.316;8.670;2022-08-11T09:24:35;25.00;48.00
46816;DHT22;32787;53.316;8.670;2022-08-11T09:27:21;24.90;46.20
46816;DHT22;32787;53.316;8.670;2022-08-11T09:29:47;25.00;47.50
46816;DHT22;32787;53.316;8.670;2022-08-11T09:32:18;24.90;48.00
46816;DHT22;32787;53.316;8.670;2022-08-11T09:34:43;25.00;45.80
46816;DHT22;32787;53.316;8.670;2022-08-11T09:37:09;25.10;46.00
46816;DHT22;32787;53.316;8.670;2022-08-11T09:39:55;25.20;45.80
46816;DHT22;32787;53.316;8.670;2022-08-11T09:42:40;25.10;45.10
46816;DHT22;32787;53.316;8.670;2022-08-11T09:45:24;25.20;45.70
46816;DHT22;32787;53.316;8.670;2022-08-11T09:47:51;25.50;44.60
46816;DHT22;32787;53.316;8.670;2022-08-11T09:50:18;25.70;43.80
46816;DHT22;32787;53.316;8.670;2022-08-11T09:52:44;25.70;43.90
46816;DHT22;32787;53.316;8.670;2022-08-11T09:55:13;25.70;43.70
46816;DHT22;32787;53.316;8.670;2022-08-11T09:57:43;25.60;43.30
46816;DHT22;32787;53.316;8.670;2022-08-11T10:00:35;25.70;43.70
46816;DHT22;32787;53.316;8.670;2022-08-11T10:03:06;25.60;44.00
46816;DHT22;32787;53.316;8.670;2022-08-11T10:05:34;25.60;43.20
46816;DHT22;32787;53.316;8.670;2022-08-11T10:08:22;25.70;44.50
46816;DHT22;32787;53.316;8.670;2022-08-11T10:10:50;25.90;43.40
46816;DHT22;32787;53.316;8.670;2022-08-11T10:13:18;26.00;44.40
46816;DHT22;32787;53.316;8.670;2022-08-11T10:15:48;25.90;43.40
46816;DHT22;32787;53.316;8.670;2022-08-11T10:18:17;25.70;44.60
46816;DHT22;32787;53.316;8.670;2022-08-11T10:23:46;25.80;44.20
46816;DHT22;32787;53.316;8.670;2022-08-11T10:26:31;26.00;43.70
46816;DHT22;32787;53.316;8.670;2022-08-11T10:29:21;26.00;43.80
46816;DHT22;32787;53.316;8.670;2022-08-11T10:32:07;25.90;44.00
46816;DHT22;32787;53.316;8.670;2022-08-11T10:34:54;25.80;44.70
46816;DHT22;32787;53.316;8.670;2022-08-11T10:37:22;25.80;43.50
46816;DHT22;32787;53.316;8.670;2022-08-11T10:39:49;26.10;43.60
46816;DHT22;32787;53.316;8.670;2022-08-11T10:42:16;26.20;43.30
46816;DHT22;32787;53.316;8.670;2022-08-11T10:45:03;26.30;44.90
46816;DHT22;32787;53.316;8.670;2022-08-11T10:47:29;26.30;43.20
46816;DHT22;32787;53.316;8.670;2022-08-11T10:50:09;26.20;44.20
46816;DHT22;32787;53.316;8.670;2022-08-11T10:52:56;26.10;44.40
46816;DHT22;32787;53.316;8.670;2022-08-11T10:55:43;26.40;46.40
46816;DHT22;32787;53.316;8.670;2022-08-11T10:58:29;26.20;44.50
46816;DHT22;32787;53.316;8.670;2022-08-11T11:01:13;26.20;45.20
46816;DHT22;32787;53.316;8.670;2022-08-11T11:03:41;26.40;42.10
46816;DHT22;32787;53.316;8.670;2022-08-11T11:06:35;26.40;41.90
46816;DHT22;32787;53.316;8.670;2022-08-11T11:09:18;26.70;42.00
46816;DHT22;32787;53.316;8.670;2022-08-11T11:11:50;26.60;43.40
46816;DHT22;32787;53.316;8.670;2022-08-11T11:14:36;26.60;43.20
46816;DHT22;32787;53.316;8.670;2022-08-11T11:17:44;26.90;42.70
46816;DHT22;32787;53.316;8.670;2022-08-11T11:20:42;27.20;42.20
46816;DHT22;32787;53.316;8.670;2022-08-11T11:23:17;27.30;41.20
46816;DHT22;32787;53.316;8.670;2022-08-11T11:31:50;27.20;39.20
46816;DHT22;32787;53.316;8.670;2022-08-11T11:36:56;28.20;38.20
46816;DHT22;32787;53.316;8.670;2022-08-11T11:39:24;28.60;37.20
46816;DHT22;32787;53.316;8.670;2022-08-11T11:41:52;28.80;37.50
46816;DHT22;32787;53.316;8.670;2022-08-11T11:44:20;28.80;38.60
46816;DHT22;32787;53.316;8.670;2022-08-11T11:46:47;28.80;37.90
46816;DHT22;32787;53.316;8.670;2022-08-11T11:49:15;28.70;38.70
46816;DHT22;32787;53.316;8.670;2022-08-11T11:51:45;28.90;38.40
46816;DHT22;32787;53.316;8.670;2022-08-11T11:54:16;29.00;37.60
46816;DHT22;32787;53.316;8.670;2022-08-11T11:56:42;28.30;38.10
46816;DHT22;32787;53.316;8.670;2022-08-11T11:59:11;27.80;39.40
46816;DHT22;32787;53.316;8.670;2022-08-11T12:01:56;27.50;39.50
46816;DHT22;32787;53.316;8.670;2022-08-11T12:04:22;27.80;38.90
46816;DHT22;32787;53.316;8.670;2022-08-11T12:06:49;27.70;39.70
46816;DHT22;32787;53.316;8.670;2022-08-11T12:09:16;27.40;39.50
46816;DHT22;32787;53.316;8.670;2022-08-11T12:11:47;27.50;39.70
46816;DHT22;32787;53.316;8.670;2022-08-11T12:14:33;27.70;40.80
46816;DHT22;32787;53.316;8.670;2022-08-11T12:16:59;27.70;39.70
46816;DHT22;32787;53.316;8.670;2022-08-11T12:19:26;28.10;39.80
46816;DHT22;32787;53.316;8.670;2022-08-11T12:21:55;28.30;38.40
46816;DHT22;32787;53.316;8.670;2022-08-11T12:24:40;28.30;37.70
46816;DHT22;32787;53.316;8.670;2022-08-11T12:27:26;27.90;38.80
46816;DHT22;32787;53.316;8.670;2022-08-11T12:29:59;27.80;38.80
46816;DHT22;32787;53.316;8.670;2022-08-11T12:32:28;27.70;40.20
46816;DHT22;32787;53.316;8.670;2022-08-11T12:34:54;27.80;40.00
46816;DHT22;32787;53.316;8.670;2022-08-11T12:37:32;27.80;39.20
46816;DHT22;32787;53.316;8.670;2022-08-11T12:40:03;27.70;39.10
46816;DHT22;32787;53.316;8.670;2022-08-11T12:42:48;27.90;38.80
46816;DHT22;32787;53.316;8.670;2022-08-11T12:45:33;28.00;37.60
46816;DHT22;32787;53.316;8.670;2022-08-11T12:51:02;28.20;37.30
46816;DHT22;32787;53.316;8.670;2022-08-11T12:53:59;28.80;35.90
46816;DHT22;32787;53.316;8.670;2022-08-11T12:56:28;29.00;36.80
46816;DHT22;32787;53.316;8.670;2022-08-11T12:59:15;29.20;36.70
46816;DHT22;32787;53.316;8.670;2022-08-11T13:01:59;30.20;34.40
46816;DHT22;32787;53.316;8.670;2022-08-11T13:04:44;31.20;32.40
46816;DHT22;32787;53.316;8.670;2022-08-11T13:07:18;32.40;30.70
46816;DHT22;32787;53.316;8.670;2022-08-11T13:09:44;33.40;29.30
46816;DHT22;32787;53.316;8.670;2022-08-11T13:12:11;33.60;29.20
46816;DHT22;32787;53.316;8.670;2022-08-11T13:14:57;33.90;29.80
46816;DHT22;32787;53.316;8.670;2022-08-11T13:17:27;34.50;28.50
46816;DHT22;32787;53.316;8.670;2022-08-11T13:19:57;34.70;28.00
46816;DHT22;32787;53.316;8.670;2022-08-11T13:22:24;34.90;27.90
46816;DHT22;32787;53.316;8.670;2022-08-11T13:24:51;35.60;26.40
46816;DHT22;32787;53.316;8.670;2022-08-11T13:27:20;35.40;27.10
46816;DHT22;32787;53.316;8.670;2022-08-11T13:29:48;35.70;26.10
46816;DHT22;32787;53.316;8.670;2022-08-11T13:32:14;34.80;26.60
46816;DHT22;32787;53.316;8.670;2022-08-11T13:34:41;34.40;27.30
46816;DHT22;32787;53.316;8.670;2022-08-11T13:37:12;35.10;27.20
46816;DHT22;32787;53.316;8.670;2022-08-11T13:39:42;34.40;27.60
46816;DHT22;32787;53.316;8.670;2022-08-11T13:42:13;34.10;26.90
46816;DHT22;32787;53.316;8.670;2022-08-11T13:44:40;34.30;27.50
46816;DHT22;32787;53.316;8.670;2022-08-11T13:47:07;34.00;28.70
46816;DHT22;32787;53.316;8.670;2022-08-11T13:49:38;34.30;28.80
46816;DHT22;32787;53.316;8.670;2022-08-11T13:52:05;34.20;27.60
46816;DHT22;32787;53.316;8.670;2022-08-11T13:54:35;34.60;27.10
46816;DHT22;32787;53.316;8.670;2022-08-11T13:57:11;34.60;27.80
46816;DHT22;32787;53.316;8.670;2022-08-11T13:59:38;34.70;26.40
46816;DHT22;32787;53.316;8.670;2022-08-11T14:02:06;35.70;25.20
46816;DHT22;32787;53.316;8.670;2022-08-11T14:04:57;35.60;25.00
46816;DHT22;32787;53.316;8.670;2022-08-11T14:07:26;35.20;28.10
46816;DHT22;32787;53.316;8.670;2022-08-11T14:09:57;33.80;28.00
46816;DHT22;32787;53.316;8.670;2022-08-11T14:12:27;33.30;28.10
46816;DHT22;32787;53.316;8.670;2022-08-11T14:15:22;33.90;27.90
46816;DHT22;32787;53.316;8.670;2022-08-11T14:17:56;33.20;28.80
46816;DHT22;32787;53.316;8.670;2022-08-11T14:20:29;33.10;28.40
46816;DHT22;32787;53.316;8.670;2022-08-11T14:23:32;34.60;29.30
46816;DHT22;32787;53.316;8.670;2022-08-11T14:25:58;34.70;26.60
46816;DHT22;32787;53.316;8.670;2022-08-11T14:28:43;36.00;26.80
46816;DHT22;32787;53.316;8.670;2022-08-11T14:31:09;35.90;25.90
46816;DHT22;32787;53.316;8.670;2022-08-11T14:33:36;34.30;27.00
46816;DHT22;32787;53.316;8.670;2022-08-11T14:36:03;34.70;28.20
46816;DHT22;32787;53.316;8.670;2022-08-11T14:38:36;34.60;27.00
46816;DHT22;32787;53.316;8.670;2022-08-11T14:41:03;33.50;28.20
46816;DHT22;32787;53.316;8.670;2022-08-11T14:43:48;33.70;28.90
46816;DHT22;32787;53.316;8.670;2022-08-11T14:46:33;35.40;27.60
46816;DHT22;32787;53.316;8.670;2022-08-11T14:49:18;36.50;25.80
46816;DHT22;32787;53.316;8.670;2022-08-11T14:51:45;35.80;25.90
46816;DHT22;32787;53.316;8.670;2022-08-11T14:54:13;36.60;27.30
46816;DHT22;32787;53.316;8.670;2022-08-11T14:56:58;36.90;24.60
46816;DHT22;32787;53.316;8.670;2022-08-11T14:59:25;37.70;25.60
46816;DHT22;32787;53.316;8.670;2022-08-11T15:01:51;37.90;24.20
46816;DHT22;32787;53.316;8.670;2022-08-11T15:04:35;36.20;25.50
46816;DHT22;32787;53.316;8.670;2022-08-11T15:07:01;35.10;26.80
46816;DHT22;32787;53.316;8.670;2022-08-11T15:09:27;35.80;25.90
46816;DHT22;32787;53.316;8.670;2022-08-11T15:11:53;36.50;26.10
46816;DHT22;32787;53.316;8.670;2022-08-11T15:14:35;37.30;23.90
46816;DHT22;32787;53.316;8.670;2022-08-11T15:17:20;37.70;23.90
46816;DHT22;32787;53.316;8.670;2022-08-11T15:19:48;37.90;24.10
46816;DHT22;32787;53.316;8.670;2022-08-11T15:22:33;36.90;23.90
46816;DHT22;32787;53.316;8.670;2022-08-11T15:25:18;36.90;25.30
46816;DHT22;32787;53.316;8.670;2022-08-11T15:27:47;37.10;24.10
46816;DHT22;32787;53.316;8.670;2022-08-11T15:30:32;37.10;24.20
46816;DHT22;32787;53.316;8.670;2022-08-11T15:33:18;36.20;26.60
46816;DHT22;32787;53.316;8.670;2022-08-11T15:36:05;36.40;25.20
46816;DHT22;32787;53.316;8.670;2022-08-11T15:38:57;36.00;25.50
46816;DHT22;32787;53.316;8.670;2022-08-11T15:41:44;35.70;26.80
46816;DHT22;32787;53.316;8.670;2022-08-11T15:44:33;36.40;25.70
46816;DHT22;32787;53.316;8.670;2022-08-11T15:47:22;36.90;26.20
46816;DHT22;32787;53.316;8.670;2022-08-11T15:49:53;37.00;24.50
46816;DHT22;32787;53.316;8.670;2022-08-11T15:52:30;36.80;24.60
46816;DHT22;32787;53.316;8.670;2022-08-11T15:54:58;35.40;25.70
46816;DHT22;32787;53.316;8.670;2022-08-11T15:57:28;34.80;26.40
46816;DHT22;32787;53.316;8.670;2022-08-11T16:00:14;35.30;26.30
46816;DHT22;32787;53.316;8.670;2022-08-11T16:02:59;35.60;26.50
46816;DHT22;32787;53.316;8.670;2022-08-11T16:05:44;35.20;25.70
46816;DHT22;32787;53.316;8.670;2022-08-11T16:08:13;34.90;26.30
46816;DHT22;32787;53.316;8.670;2022-08-11T16:10:41;34.90;25.90
46816;DHT22;32787;53.316;8.670;2022-08-11T16:13:09;34.20;26.20
46816;DHT22;32787;53.316;8.670;2022-08-11T16:15:39;34.90;27.80
46816;DHT22;32787;53.316;8.670;2022-08-11T16:18:29;34.70;25.90
46816;DHT22;32787;53.316;8.670;2022-08-11T16:21:11;34.90;25.70
46816;DHT22;32787;53.316;8.670;2022-08-11T16:23:39;34.90;26.30
46816;DHT22;32787;53.316;8.670;2022-08-11T16:26:05;34.80;26.10
46816;DHT22;32787;53.316;8.670;2022-08-11T16:28:33;34.80;26.30
46816;DHT22;32787;53.316;8.670;2022-08-11T16:31:01;34.30;26.40
46816;DHT22;32787;53.316;8.670;2022-08-11T16:33:28;34.20;28.00
46816;DHT22;32787;53.316;8.670;2022-08-11T16:35:55;32.60;29.30
46816;DHT22;32787;53.316;8.670;2022-08-11T16:38:40;31.50;30.60
46816;DHT22;32787;53.316;8.670;2022-08-11T16:41:13;31.40;30.50
46816;DHT22;32787;53.316;8.670;2022-08-11T16:43:44;31.00;32.40
46816;DHT22;32787;53.316;8.670;2022-08-11T16:46:29;30.30;33.00
46816;DHT22;32787;53.316;8.670;2022-08-11T16:49:29;29.70;33.40
46816;DHT22;32787;53.316;8.670;2022-08-11T16:51:56;29.60;34.50
46816;DHT22;32787;53.316;8.670;2022-08-11T16:54:22;29.20;33.70
46816;DHT22;32787;53.316;8.670;2022-08-11T16:56:52;29.40;34.10
46816;DHT22;32787;53.316;8.670;2022-08-11T16:59:25;29.20;35.10
46816;DHT22;32787;53.316;8.670;2022-08-11T17:02:04;29.00;34.20
46816;DHT22;32787;53.316;8.670;2022-08-11T17:04:38;28.80;34.80
46816;DHT22;32787;53.316;8.670;2022-08-11T17:07:26;29.00;34.20
46816;DHT22;32787;53.316;8.670;2022-08-11T17:10:32;28.80;35.60
46816;DHT22;32787;53.316;8.670;2022-08-11T17:13:25;28.50;35.20
46816;DHT22;32787;53.316;8.670;2022-08-11T17:15:57;28.50;34.90
46816;DHT22;32787;53.316;8.670;2022-08-11T17:18:47;28.60;35.60
46816;DHT22;32787;53.316;8.670;2022-08-11T17:21:49;28.60;35.30
46816;DHT22;32787;53.316;8.670;2022-08-11T17:24:39;28.70;33.90
46816;DHT22;32787;53.316;8.670;2022-08-11T17:27:07;28.40;35.70
46816;DHT22;32787;53.316;8.670;2022-08-11T17:29:43;28.20;36.60
46816;DHT22;32787;53.316;8.670;2022-08-11T17:32:12;28.10;35.90
46816;DHT22;32787;53.316;8.670;2022-08-11T17:35:13;27.90;36.90
46816;DHT22;32787;53.316;8.670;2022-08-11T17:38:04;27.80;37.00
46816;DHT22;32787;53.316;8.670;2022-08-11T17:40:33;27.70;37.70
46816;DHT22;32787;53.316;8.670;2022-08-11T17:43:02;27.70;37.70
46816;DHT22;32787;53.316;8.670;2022-08-11T17:45:47;27.50;38.20
46816;DHT22;32787;53.316;8.670;2022-08-11T17:48:37;27.40;39.70
46816;DHT22;32787;53.316;8.670;2022-08-11T17:51:07;27.20;39.30
46816;DHT22;32787;53.316;8.670;2022-08-11T17:53:39;27.20;40.10
46816;DHT22;32787;53.316;8.670;2022-08-11T17:56:24;27.00;40.40
46816;DHT22;32787;53.316;8.670;2022-08-11T17:59:11;26.80;40.40
46816;DHT22;32787;53.316;8.670;2022-08-11T18:01:59;26.90;40.80
46816;DHT22;32787;53.316;8.670;2022-08-11T18:04:49;27.10;42.90
46816;DHT22;32787;53.316;8.670;2022-08-11T18:07:18;27.10;44.20
46816;DHT22;32787;53.316;8.670;2022-08-11T18:10:04;27.00;45.00
46816;DHT22;32787;53.316;8.670;2022-08-11T18:12:50;26.90;45.80
46816;DHT22;32787;53.316;8.670;2022-08-11T18:15:38;26.70;46.70
46816;DHT22;32787;53.316;8.670;2022-08-11T18:18:23;26.70;47.70
46816;DHT22;32787;53.316;8.670;2022-08-11T18:21:08;26.60;48.30
46816;DHT22;32787;53.316;8.670;2022-08-11T18:23:54;26.40;48.90
46816;DHT22;32787;53.316;8.670;2022-08-11T18:26:42;26.60;48.60
46816;DHT22;32787;53.316;8.670;2022-08-11T18:29:29;26.40;49.30
46816;DHT22;32787;53.316;8.670;2022-08-11T18:32:15;26.20;50.00
46816;DHT22;32787;53.316;8.670;2022-08-11T18:35:01;26.00;50.90
46816;DHT22;32787;53.316;8.670;2022-08-11T18:37:49;25.90;51.60
46816;DHT22;32787;53.316;8.670;2022-08-11T18:40:35;25.70;52.10
46816;DHT22;32787;53.316;8.670;2022-08-11T18:43:21;25.60;52.90
46816;DHT22;32787;53.316;8.670;2022-08-11T18:46:08;25.70;52.70
46816;DHT22;32787;53.316;8.670;2022-08-11T18:48:58;25.40;53.70
46816;DHT22;32787;53.316;8.670;2022-08-11T18:51:48;25.50;53.50
46816;DHT22;32787;53.316;8.670;2022-08-11T18:54:36;25.40;54.20
46816;DHT22;32787;53.316;8.670;2022-08-11T18:57:23;25.30;54.30
46816;DHT22;32787;53.316;8.670;2022-08-11T19:00:08;25.20;54.60
46816;DHT22;32787;53.316;8.670;2022-08-11T19:02:54;25.00;55.40
46816;DHT22;32787;53.316;8.670;2022-08-11T19:05:39;24.90;56.20
46816;DHT22;32787;53.316;8.670;2022-08-11T19:08:30;24.70;56.30
46816;DHT22;32787;53.316;8.670;2022-08-11T19:11:18;24.70;56.20
46816;DHT22;32787;53.316;8.670;2022-08-11T19:14:02;24.70;56.30
46816;DHT22;32787;53.316;8.670;2022-08-11T19:16:48;24.60;56.80
46816;DHT22;32787;53.316;8.670;2022-08-11T19:19:34;24.40;57.00
46816;DHT22;32787;53.316;8.670;2022-08-11T19:22:21;24.30;56.80
46816;DHT22;32787;53.316;8.670;2022-08-11T19:25:07;24.40;56.40
46816;DHT22;32787;53.316;8.670;2022-08-11T19:27:53;24.20;57.40
46816;DHT22;32787;53.316;8.670;2022-08-11T19:30:38;24.10;57.40
46816;DHT22;32787;53.316;8.670;2022-08-11T19:33:23;24.00;58.30
46816;DHT22;32787;53.316;8.670;2022-08-11T19:36:08;23.90;58.60
46816;DHT22;32787;53.316;8.670;2022-08-11T19:38:53;23.80;58.90
46816;DHT22;32787;53.316;8.670;2022-08-11T19:41:38;23.60;59.50
46816;DHT22;32787;53.316;8.670;2022-08-11T19:44:24;23.50;60.10
46816;DHT22;32787;53.316;8.670;2022-08-11T19:47:09;23.30;60.80
46816;DHT22;32787;53.316;8.670;2022-08-11T19:49:54;23.40;60.30
46816;DHT22;32787;53.316;8.670;2022-08-11T19:52:40;23.20;61.00
46816;DHT22;32787;53.316;8.670;2022-08-11T19:55:26;23.20;60.70
46816;DHT22;32787;53.316;8.670;2022-08-11T19:58:11;23.20;60.50
46816;DHT22;32787;53.316;8.670;2022-08-11T20:00:57;23.20;60.90
46816;DHT22;32787;53.316;8.670;2022-08-11T20:03:41;23.10;61.00
46816;DHT22;32787;53.316;8.670;2022-08-11T20:06:26;23.10;61.10
46816;DHT22;32787;53.316;8.670;2022-08-11T20:09:12;23.00;61.00
46816;DHT22;32787;53.316;8.670;2022-08-11T20:12:01;23.10;61.30
46816;DHT22;32787;53.316;8.670;2022-08-11T20:14:45;22.70;62.30
46816;DHT22;32787;53.316;8.670;2022-08-11T20:17:33;22.60;63.10
46816;DHT22;32787;53.316;8.670;2022-08-11T20:20:19;22.30;64.10